sensor_id;sensor_type;location;lat;lon;timestamp;temperature;humidity
16966;DHT22;8599;47.852;12.070;2024-02-23T00:01:22;9.10;99.90
16966;DHT22;8599;47.852;12.070;2024-02-23T00:03:50;9.00;99.90
16966;DHT22;8599;47.852;12.070;2024-02-23T00:06:19;8.80;99.90
16966;DHT22;8599;47.852;12.070;2024-02-23T00:08:46;8.60;99.90
16966;DHT22;8599;47.852;12.070;2024-02-23T00:11:14;8.50;99.90
16966;DHT22;8599;47.852;12.070;2024-02-23T00:13:41;8.20;99.90
16966;DHT22;8599;47.852;12.070;2024-02-23T00:16:09;8.20;99.90
16966;DHT22;8599;47.852;12.070;2024-02-23T00:18:36;8.10;99.90
16966;DHT22;8599;47.852;12.070;2024-02-23T00:21:04;8.20;99.90
16966;DHT22;8599;47.852;12.070;2024-02-23T00:23:31;8.10;99.90
16966;DHT22;8599;47.852;12.070;2024-02-23T00:25:58;8.10;99.90
16966;DHT22;8599;47.852;12.070;2024-02-23T00:28:24;8.10;99.90
16966;DHT22;8599;47.852;12.070;2024-02-23T00:30:51;8.10;99.90
16966;DHT22;8599;47.852;12.070;2024-02-23T00:33:19;8.10;99.90
16966;DHT22;8599;47.852;12.070;2024-02-23T00:35:46;8.20;99.90
16966;DHT22;8599;47.852;12.070;2024-02-23T00:38:13;8.30;99.90
16966;DHT22;8599;47.852;12.070;2024-02-23T00:40:40;8.30;99.90
16966;DHT22;8599;47.852;12.070;2024-02-23T00:43:07;8.20;99.90
16966;DHT22;8599;47.852;12.070;2024-02-23T00:45:34;8.30;99.90
16966;DHT22;8599;47.852;12.070;2024-02-23T00:48:00;8.30;99.90
16966;DHT22;8599;47.852;12.070;2024-02-23T00:50:29;8.30;99.90
16966;DHT22;8599;47.852;12.070;2024-02-23T00:52:55;8.30;99.90
16966;DHT22;8599;47.852;12.070;2024-02-23T00:55:22;8.30;99.90
16966;DHT22;8599;47.852;12.070;2024-02-23T00:57:50;8.30;99.90
16966;DHT22;8599;47.852;12.070;2024-02-23T01:00:18;8.40;99.90
16966;DHT22;8599;47.852;12.070;2024-02-23T01:02:44;8.30;99.90
16966;DHT22;8599;47.852;12.070;2024-02-23T01:05:11;8.30;99.90
16966;DHT22;8599;47.852;12.070;2024-02-23T01:07:40;8.40;99.90
16966;DHT22;8599;47.852;12.070;2024-02-23T01:10:07;8.50;99.90
16966;DHT22;8599;47.852;12.070;2024-02-23T01:12:35;8.50;99.90
16966;DHT22;8599;47.852;12.070;2024-02-23T01:15:03;8.50;99.90
16966;DHT22;8599;47.852;12.070;2024-02-23T01:17:30;8.40;99.90
16966;DHT22;8599;47.852;12.070;2024-02-23T01:19:57;8.40;99.90
16966;DHT22;8599;47.852;12.070;2024-02-23T01:22:24;8.30;99.90
16966;DHT22;8599;47.852;12.070;2024-02-23T01:24:52;8.30;99.90
16966;DHT22;8599;47.852;12.070;2024-02-23T01:27:19;8.40;99.90
16966;DHT22;8599;47.852;12.070;2024-02-23T01:29:47;8.40;99.90
16966;DHT22;8599;47.852;12.070;2024-02-23T01:32:14;8.40;99.90
16966;DHT22;8599;47.852;12.070;2024-02-23T01:34:41;8.50;99.90
16966;DHT22;8599;47.852;12.070;2024-02-23T01:37:07;8.40;99.90
16966;DHT22;8599;47.852;12.070;2024-02-23T01:39:34;8.40;99.90
16966;DHT22;8599;47.852;12.070;2024-02-23T01:42:03;8.20;99.90
16966;DHT22;8599;47.852;12.070;2024-02-23T01:44:30;8.20;99.90
16966;DHT22;8599;47.852;12.070;2024-02-23T01:46:57;8.30;99.90
16966;DHT22;8599;47.852;12.070;2024-02-23T01:49:24;8.30;99.90
16966;DHT22;8599;47.852;12.070;2024-02-23T01:51:55;8.20;99.90
16966;DHT22;8599;47.852;12.070;2024-02-23T01:54:22;8.30;99.90
16966;DHT22;8599;47.852;12.070;2024-02-23T01:56:49;8.30;99.90
16966;DHT22;8599;47.852;12.070;2024-02-23T01:59:18;8.30;99.90
16966;DHT22;8599;47.852;12.070;2024-02-23T02:01:45;8.20;99.90
16966;DHT22;8599;47.852;12.070;2024-02-23T02:04:12;8.20;99.90
16966;DHT22;8599;47.852;12.070;2024-02-23T02:06:39;8.10;99.90
16966;DHT22;8599;47.852;12.070;2024-02-23T02:09:06;8.10;99.90
16966;DHT22;8599;47.852;12.070;2024-02-23T02:11:33;8.10;99.90
16966;DHT22;8599;47.852;12.070;2024-02-23T02:14:00;8.10;99.90
16966;DHT22;8599;47.852;12.070;2024-02-23T02:16:28;8.10;99.90
16966;DHT22;8599;47.852;12.070;2024-02-23T02:18:55;8.10;99.90
16966;DHT22;8599;47.852;12.070;2024-02-23T02:21:22;8.20;99.90
16966;DHT22;8599;47.852;12.070;2024-02-23T02:23:50;8.20;99.90
16966;DHT22;8599;47.852;12.070;2024-02-23T02:26:17;8.10;99.90
16966;DHT22;8599;47.852;12.070;2024-02-23T02:28:45;8.10;99.90
16966;DHT22;8599;47.852;12.070;2024-02-23T02:31:12;8.00;99.90
16966;DHT22;8599;47.852;12.070;2024-02-23T02:33:41;8.00;99.90
16966;DHT22;8599;47.852;12.070;2024-02-23T02:36:08;8.00;99.90
16966;DHT22;8599;47.852;12.070;2024-02-23T02:38:35;8.00;99.90
16966;DHT22;8599;47.852;12.070;2024-02-23T02:41:02;8.10;99.90
16966;DHT22;8599;47.852;12.070;2024-02-23T02:43:28;8.10;99.90
16966;DHT22;8599;47.852;12.070;2024-02-23T02:45:55;8.20;99.90
16966;DHT22;8599;47.852;12.070;2024-02-23T02:48:22;8.10;99.90
16966;DHT22;8599;47.852;12.070;2024-02-23T02:50:51;8.00;99.90
16966;DHT22;8599;47.852;12.070;2024-02-23T02:53:18;8.10;99.90
16966;DHT22;8599;47.852;12.070;2024-02-23T02:55:45;8.10;99.90
16966;DHT22;8599;47.852;12.070;2024-02-23T02:58:12;8.10;99.90
16966;DHT22;8599;47.852;12.070;2024-02-23T03:00:39;8.10;99.90
16966;DHT22;8599;47.852;12.070;2024-02-23T03:03:07;8.10;99.90
16966;DHT22;8599;47.852;12.070;2024-02-23T03:05:34;8.10;99.90
16966;DHT22;8599;47.852;12.070;2024-02-23T03:08:02;8.20;99.90
16966;DHT22;8599;47.852;12.070;2024-02-23T03:10:29;8.30;99.90
16966;DHT22;8599;47.852;12.070;2024-02-23T03:12:55;8.30;99.90
16966;DHT22;8599;47.852;12.070;2024-02-23T03:15:22;8.30;99.90
16966;DHT22;8599;47.852;12.070;2024-02-23T03:17:49;8.30;99.90
16966;DHT22;8599;47.852;12.070;2024-02-23T03:20:16;8.30;99.90
16966;DHT22;8599;47.852;12.070;2024-02-23T03:22:43;8.30;99.90
16966;DHT22;8599;47.852;12.070;2024-02-23T03:25:11;8.40;99.90
16966;DHT22;8599;47.852;12.070;2024-02-23T03:27:38;8.50;99.90
16966;DHT22;8599;47.852;12.070;2024-02-23T03:30:06;8.40;99.90
16966;DHT22;8599;47.852;12.070;2024-02-23T03:32:34;8.50;99.90
16966;DHT22;8599;47.852;12.070;2024-02-23T03:35:04;8.50;99.90
16966;DHT22;8599;47.852;12.070;2024-02-23T03:37:32;8.40;99.90
16966;DHT22;8599;47.852;12.070;2024-02-23T03:39:59;8.50;99.90
16966;DHT22;8599;47.852;12.070;2024-02-23T03:42:27;8.50;99.90
16966;DHT22;8599;47.852;12.070;2024-02-23T03:44:54;8.60;99.90
16966;DHT22;8599;47.852;12.070;2024-02-23T03:47:21;8.50;99.90
16966;DHT22;8599;47.852;12.070;2024-02-23T03:49:48;8.50;99.90
16966;DHT22;8599;47.852;12.070;2024-02-23T03:52:15;8.50;99.90
16966;DHT22;8599;47.852;12.070;2024-02-23T03:54:42;8.60;99.90
16966;DHT22;8599;47.852;12.070;2024-02-23T03:57:08;8.50;99.90
16966;DHT22;8599;47.852;12.070;2024-02-23T03:59:37;8.50;99.90
16966;DHT22;8599;47.852;12.070;2024-02-23T04:02:04;8.50;99.90
16966;DHT22;8599;47.852;12.070;2024-02-23T04:04:31;8.40;99.90
16966;DHT22;8599;47.852;12.070;2024-02-23T04:06:58;8.40;99.90
16966;DHT22;8599;47.852;12.070;2024-02-23T04:09:25;8.40;99.90
16966;DHT22;8599;47.852;12.070;2024-02-23T04:11:51;8.30;99.90
16966;DHT22;8599;47.852;12.070;2024-02-23T04:14:18;8.30;99.90
16966;DHT22;8599;47.852;12.070;2024-02-23T04:16:46;8.40;99.90
16966;DHT22;8599;47.852;12.070;2024-02-23T04:19:13;8.50;99.90
16966;DHT22;8599;47.852;12.070;2024-02-23T04:21:40;8.40;99.90
16966;DHT22;8599;47.852;12.070;2024-02-23T04:24:07;8.30;99.90
16966;DHT22;8599;47.852;12.070;2024-02-23T04:26:34;8.20;99.90
16966;DHT22;8599;47.852;12.070;2024-02-23T04:29:01;8.20;99.90
16966;DHT22;8599;47.852;12.070;2024-02-23T04:31:27;8.20;99.90
16966;DHT22;8599;47.852;12.070;2024-02-23T04:33:56;8.30;99.90
16966;DHT22;8599;47.852;12.070;2024-02-23T04:36:22;8.20;99.90
16966;DHT22;8599;47.852;12.070;2024-02-23T04:38:49;8.20;99.90
16966;DHT22;8599;47.852;12.070;2024-02-23T04:41:19;8.20;99.90
16966;DHT22;8599;47.852;12.070;2024-02-23T04:43:46;8.20;99.90
16966;DHT22;8599;47.852;12.070;2024-02-23T04:46:13;8.20;99.90
16966;DHT22;8599;47.852;12.070;2024-02-23T04:48:41;8.00;99.90
16966;DHT22;8599;47.852;12.070;2024-02-23T04:51:09;8.00;99.90
16966;DHT22;8599;47.852;12.070;2024-02-23T04:53:36;7.90;99.90
16966;DHT22;8599;47.852;12.070;2024-02-23T04:56:04;8.20;99.90
16966;DHT22;8599;47.852;12.070;2024-02-23T04:58:31;8.20;99.90
16966;DHT22;8599;47.852;12.070;2024-02-23T05:00:57;8.20;99.90
16966;DHT22;8599;47.852;12.070;2024-02-23T05:03:24;8.00;99.90
16966;DHT22;8599;47.852;12.070;2024-02-23T05:05:52;8.00;99.90
16966;DHT22;8599;47.852;12.070;2024-02-23T05:08:21;8.10;99.90
16966;DHT22;8599;47.852;12.070;2024-02-23T05:10:49;8.10;99.90
16966;DHT22;8599;47.852;12.070;2024-02-23T05:13:16;8.10;99.90
16966;DHT22;8599;47.852;12.070;2024-02-23T05:15:43;8.00;99.90
16966;DHT22;8599;47.852;12.070;2024-02-23T05:18:10;7.90;99.90
16966;DHT22;8599;47.852;12.070;2024-02-23T05:20:37;7.80;99.90
16966;DHT22;8599;47.852;12.070;2024-02-23T05:23:04;7.80;99.90
16966;DHT22;8599;47.852;12.070;2024-02-23T05:25:32;7.80;99.90
16966;DHT22;8599;47.852;12.070;2024-02-23T05:27:59;7.80;99.90
16966;DHT22;8599;47.852;12.070;2024-02-23T05:30:25;7.70;99.90
16966;DHT22;8599;47.852;12.070;2024-02-23T05:32:56;7.60;99.90
16966;DHT22;8599;47.852;12.070;2024-02-23T05:35:23;7.60;99.90
16966;DHT22;8599;47.852;12.070;2024-02-23T05:37:50;7.50;99.90
16966;DHT22;8599;47.852;12.070;2024-02-23T05:40:17;7.40;99.90
16966;DHT22;8599;47.852;12.070;2024-02-23T05:42:45;7.40;99.90
16966;DHT22;8599;47.852;12.070;2024-02-23T05:45:12;7.40;99.90
16966;DHT22;8599;47.852;12.070;2024-02-23T05:47:39;7.20;99.90
16966;DHT22;8599;47.852;12.070;2024-02-23T05:50:08;7.10;99.90
16966;DHT22;8599;47.852;12.070;2024-02-23T05:52:35;7.10;99.90
16966;DHT22;8599;47.852;12.070;2024-02-23T05:55:03;7.10;99.90
16966;DHT22;8599;47.852;12.070;2024-02-23T05:57:30;7.00;99.90
16966;DHT22;8599;47.852;12.070;2024-02-23T05:59:58;7.00;99.90
16966;DHT22;8599;47.852;12.070;2024-02-23T06:02:25;6.90;99.90
16966;DHT22;8599;47.852;12.070;2024-02-23T06:04:52;6.90;99.90
16966;DHT22;8599;47.852;12.070;2024-02-23T06:07:19;6.70;99.90
16966;DHT22;8599;47.852;12.070;2024-02-23T06:09:52;6.70;99.90
16966;DHT22;8599;47.852;12.070;2024-02-23T06:12:19;6.60;99.90
16966;DHT22;8599;47.852;12.070;2024-02-23T06:14:46;6.60;99.90
16966;DHT22;8599;47.852;12.070;2024-02-23T06:17:15;6.70;99.90
16966;DHT22;8599;47.852;12.070;2024-02-23T06:19:42;6.60;99.90
16966;DHT22;8599;47.852;12.070;2024-02-23T06:22:09;6.50;99.90
16966;DHT22;8599;47.852;12.070;2024-02-23T06:24:37;6.40;99.90
16966;DHT22;8599;47.852;12.070;2024-02-23T06:27:04;6.30;99.90
16966;DHT22;8599;47.852;12.070;2024-02-23T06:29:31;6.30;99.90
16966;DHT22;8599;47.852;12.070;2024-02-23T06:31:58;6.20;99.90
16966;DHT22;8599;47.852;12.070;2024-02-23T06:34:28;6.20;99.90
16966;DHT22;8599;47.852;12.070;2024-02-23T06:36:55;6.30;99.90
16966;DHT22;8599;47.852;12.070;2024-02-23T06:39:22;6.40;99.90
16966;DHT22;8599;47.852;12.070;2024-02-23T06:41:48;6.50;99.90
16966;DHT22;8599;47.852;12.070;2024-02-23T06:44:15;6.70;99.90
16966;DHT22;8599;47.852;12.070;2024-02-23T06:46:42;6.60;99.90
16966;DHT22;8599;47.852;12.070;2024-02-23T06:49:10;6.60;99.90
16966;DHT22;8599;47.852;12.070;2024-02-23T06:51:38;6.60;99.90
16966;DHT22;8599;47.852;12.070;2024-02-23T06:54:06;6.70;99.90
16966;DHT22;8599;47.852;12.070;2024-02-23T06:56:33;6.60;99.90
16966;DHT22;8599;47.852;12.070;2024-02-23T06:59:00;6.60;99.90
16966;DHT22;8599;47.852;12.070;2024-02-23T07:01:27;6.50;99.90
16966;DHT22;8599;47.852;12.070;2024-02-23T07:03:54;6.60;99.90
16966;DHT22;8599;47.852;12.070;2024-02-23T07:06:21;6.60;99.90
16966;DHT22;8599;47.852;12.070;2024-02-23T07:08:49;6.50;99.90
16966;DHT22;8599;47.852;12.070;2024-02-23T07:11:16;6.60;99.90
16966;DHT22;8599;47.852;12.070;2024-02-23T07:13:43;6.60;99.90
16966;DHT22;8599;47.852;12.070;2024-02-23T07:16:10;6.50;99.90
16966;DHT22;8599;47.852;12.070;2024-02-23T07:18:37;6.60;99.90
16966;DHT22;8599;47.852;12.070;2024-02-23T07:21:04;6.70;99.90
16966;DHT22;8599;47.852;12.070;2024-02-23T07:23:31;6.60;99.90
16966;DHT22;8599;47.852;12.070;2024-02-23T07:25:59;6.60;99.90
16966;DHT22;8599;47.852;12.070;2024-02-23T07:28:26;6.60;99.90
16966;DHT22;8599;47.852;12.070;2024-02-23T07:30:53;6.70;99.90
16966;DHT22;8599;47.852;12.070;2024-02-23T07:33:20;6.70;99.90
16966;DHT22;8599;47.852;12.070;2024-02-23T07:35:47;6.70;99.90
16966;DHT22;8599;47.852;12.070;2024-02-23T07:38:14;6.60;99.90
16966;DHT22;8599;47.852;12.070;2024-02-23T07:40:40;6.70;99.90
16966;DHT22;8599;47.852;12.070;2024-02-23T07:43:09;6.60;99.90
16966;DHT22;8599;47.852;12.070;2024-02-23T07:45:36;6.60;99.90
16966;DHT22;8599;47.852;12.070;2024-02-23T07:48:04;6.40;99.90
16966;DHT22;8599;47.852;12.070;2024-02-23T07:50:31;6.40;99.90
16966;DHT22;8599;47.852;12.070;2024-02-23T07:52:57;6.50;99.90
16966;DHT22;8599;47.852;12.070;2024-02-23T07:55:24;6.40;99.90
16966;DHT22;8599;47.852;12.070;2024-02-23T07:57:51;6.50;99.90
16966;DHT22;8599;47.852;12.070;2024-02-23T08:00:20;6.40;99.90
16966;DHT22;8599;47.852;12.070;2024-02-23T08:02:46;6.40;99.90
16966;DHT22;8599;47.852;12.070;2024-02-23T08:05:12;6.40;99.90
16966;DHT22;8599;47.852;12.070;2024-02-23T08:07:39;6.50;99.90
16966;DHT22;8599;47.852;12.070;2024-02-23T08:10:06;6.50;99.90
16966;DHT22;8599;47.852;12.070;2024-02-23T08:12:34;6.40;99.90
16966;DHT22;8599;47.852;12.070;2024-02-23T08:15:01;6.30;99.90
16966;DHT22;8599;47.852;12.070;2024-02-23T08:17:30;6.30;99.90
16966;DHT22;8599;47.852;12.070;2024-02-23T08:19:57;6.30;99.90
16966;DHT22;8599;47.852;12.070;2024-02-23T08:22:24;6.30;99.90
16966;DHT22;8599;47.852;12.070;2024-02-23T08:24:50;6.20;99.90
16966;DHT22;8599;47.852;12.070;2024-02-23T08:27:17;6.20;99.90
16966;DHT22;8599;47.852;12.070;2024-02-23T08:29:44;6.20;99.90
16966;DHT22;8599;47.852;12.070;2024-02-23T08:32:11;6.30;99.90
16966;DHT22;8599;47.852;12.070;2024-02-23T08:34:40;6.50;99.90
16966;DHT22;8599;47.852;12.070;2024-02-23T08:37:06;6.40;99.90
16966;DHT22;8599;47.852;12.070;2024-02-23T08:39:33;6.40;99.90
16966;DHT22;8599;47.852;12.070;2024-02-23T08:42:02;6.40;99.90
16966;DHT22;8599;47.852;12.070;2024-02-23T08:44:29;6.40;99.90
16966;DHT22;8599;47.852;12.070;2024-02-23T08:46:56;6.30;99.90
16966;DHT22;8599;47.852;12.070;2024-02-23T08:49:23;6.50;99.90
16966;DHT22;8599;47.852;12.070;2024-02-23T08:51:51;6.50;99.90
16966;DHT22;8599;47.852;12.070;2024-02-23T08:54:18;6.50;99.90
16966;DHT22;8599;47.852;12.070;2024-02-23T08:56:44;6.40;99.90
16966;DHT22;8599;47.852;12.070;2024-02-23T08:59:11;6.50;99.90
16966;DHT22;8599;47.852;12.070;2024-02-23T09:01:38;6.50;99.90
16966;DHT22;8599;47.852;12.070;2024-02-23T09:04:05;6.40;99.90
16966;DHT22;8599;47.852;12.070;2024-02-23T09:06:32;6.50;99.90
16966;DHT22;8599;47.852;12.070;2024-02-23T09:09:00;6.60;99.90
16966;DHT22;8599;47.852;12.070;2024-02-23T09:11:27;6.60;99.90
16966;DHT22;8599;47.852;12.070;2024-02-23T09:13:54;6.50;99.90
16966;DHT22;8599;47.852;12.070;2024-02-23T09:16:21;6.40;99.90
16966;DHT22;8599;47.852;12.070;2024-02-23T09:18:50;6.30;99.90
16966;DHT22;8599;47.852;12.070;2024-02-23T09:21:17;6.40;99.90
16966;DHT22;8599;47.852;12.070;2024-02-23T09:23:44;6.50;99.90
16966;DHT22;8599;47.852;12.070;2024-02-23T09:26:12;6.50;99.90
16966;DHT22;8599;47.852;12.070;2024-02-23T09:28:39;6.50;99.90
16966;DHT22;8599;47.852;12.070;2024-02-23T09:31:07;6.40;99.90
16966;DHT22;8599;47.852;12.070;2024-02-23T09:33:34;6.30;99.90
16966;DHT22;8599;47.852;12.070;2024-02-23T09:36:01;6.30;99.90
16966;DHT22;8599;47.852;12.070;2024-02-23T09:38:28;6.40;99.90
16966;DHT22;8599;47.852;12.070;2024-02-23T09:40:57;6.30;99.90
16966;DHT22;8599;47.852;12.070;2024-02-23T09:43:29;6.30;99.90
16966;DHT22;8599;47.852;12.070;2024-02-23T09:45:57;6.10;99.90
16966;DHT22;8599;47.852;12.070;2024-02-23T09:48:24;6.10;99.90
16966;DHT22;8599;47.852;12.070;2024-02-23T09:50:52;6.00;99.90
16966;DHT22;8599;47.852;12.070;2024-02-23T09:53:19;6.00;99.90
16966;DHT22;8599;47.852;12.070;2024-02-23T09:55:48;6.00;99.90
16966;DHT22;8599;47.852;12.070;2024-02-23T09:58:16;6.00;99.90
16966;DHT22;8599;47.852;12.070;2024-02-23T10:00:45;6.20;99.90
16966;DHT22;8599;47.852;12.070;2024-02-23T10:03:12;6.30;99.90
16966;DHT22;8599;47.852;12.070;2024-02-23T10:05:39;6.30;99.90
16966;DHT22;8599;47.852;12.070;2024-02-23T10:08:06;6.20;99.90
16966;DHT22;8599;47.852;12.070;2024-02-23T10:10:34;6.10;99.90
16966;DHT22;8599;47.852;12.070;2024-02-23T10:13:01;6.00;99.90
16966;DHT22;8599;47.852;12.070;2024-02-23T10:15:30;6.00;99.90
16966;DHT22;8599;47.852;12.070;2024-02-23T10:17:58;6.00;99.90
16966;DHT22;8599;47.852;12.070;2024-02-23T10:20:25;6.00;99.90
16966;DHT22;8599;47.852;12.070;2024-02-23T10:22:52;6.00;99.90
16966;DHT22;8599;47.852;12.070;2024-02-23T10:25:19;6.00;99.90
16966;DHT22;8599;47.852;12.070;2024-02-23T10:27:46;6.00;99.90
16966;DHT22;8599;47.852;12.070;2024-02-23T10:30:14;5.80;99.90
16966;DHT22;8599;47.852;12.070;2024-02-23T10:32:41;5.90;99.90
16966;DHT22;8599;47.852;12.070;2024-02-23T10:35:13;5.90;99.90
16966;DHT22;8599;47.852;12.070;2024-02-23T10:37:42;5.80;99.90
16966;DHT22;8599;47.852;12.070;2024-02-23T10:40:11;5.80;99.90
16966;DHT22;8599;47.852;12.070;2024-02-23T10:42:39;5.60;99.90
16966;DHT22;8599;47.852;12.070;2024-02-23T10:45:08;5.60;99.90
16966;DHT22;8599;47.852;12.070;2024-02-23T10:47:36;5.50;99.90
16966;DHT22;8599;47.852;12.070;2024-02-23T10:50:04;5.50;99.90
16966;DHT22;8599;47.852;12.070;2024-02-23T10:52:33;5.30;99.90
16966;DHT22;8599;47.852;12.070;2024-02-23T10:55:02;5.50;99.90
16966;DHT22;8599;47.852;12.070;2024-02-23T10:57:30;5.40;99.90
16966;DHT22;8599;47.852;12.070;2024-02-23T10:59:58;5.40;99.90
16966;DHT22;8599;47.852;12.070;2024-02-23T11:02:27;5.30;99.90
16966;DHT22;8599;47.852;12.070;2024-02-23T11:04:55;5.30;99.90
16966;DHT22;8599;47.852;12.070;2024-02-23T11:07:23;5.30;99.90
16966;DHT22;8599;47.852;12.070;2024-02-23T11:09:53;5.30;99.90
16966;DHT22;8599;47.852;12.070;2024-02-23T11:12:23;5.30;99.90
16966;DHT22;8599;47.852;12.070;2024-02-23T11:14:50;5.30;99.90
16966;DHT22;8599;47.852;12.070;2024-02-23T11:17:18;5.30;99.90
16966;DHT22;8599;47.852;12.070;2024-02-23T11:19:48;5.30;99.90
16966;DHT22;8599;47.852;12.070;2024-02-23T11:22:23;5.30;99.90
16966;DHT22;8599;47.852;12.070;2024-02-23T11:24:53;5.30;99.90
16966;DHT22;8599;47.852;12.070;2024-02-23T11:27:20;5.40;99.90
16966;DHT22;8599;47.852;12.070;2024-02-23T11:29:47;5.40;99.90
16966;DHT22;8599;47.852;12.070;2024-02-23T11:32:15;5.50;99.90
16966;DHT22;8599;47.852;12.070;2024-02-23T11:34:41;5.50;99.90
16966;DHT22;8599;47.852;12.070;2024-02-23T11:37:09;5.60;99.90
16966;DHT22;8599;47.852;12.070;2024-02-23T11:39:37;5.60;99.90
16966;DHT22;8599;47.852;12.070;2024-02-23T11:42:06;5.50;99.90
16966;DHT22;8599;47.852;12.070;2024-02-23T11:44:34;5.60;99.90
16966;DHT22;8599;47.852;12.070;2024-02-23T11:47:00;5.60;99.90
16966;DHT22;8599;47.852;12.070;2024-02-23T11:49:28;5.60;99.90
16966;DHT22;8599;47.852;12.070;2024-02-23T11:51:56;5.50;99.90
16966;DHT22;8599;47.852;12.070;2024-02-23T11:54:23;5.60;99.90
16966;DHT22;8599;47.852;12.070;2024-02-23T11:56:51;5.60;99.90
16966;DHT22;8599;47.852;12.070;2024-02-23T11:59:20;5.70;99.90
16966;DHT22;8599;47.852;12.070;2024-02-23T12:01:47;5.70;99.90
16966;DHT22;8599;47.852;12.070;2024-02-23T12:04:14;5.70;99.90
16966;DHT22;8599;47.852;12.070;2024-02-23T12:06:42;5.70;99.90
16966;DHT22;8599;47.852;12.070;2024-02-23T12:09:09;5.70;99.90
16966;DHT22;8599;47.852;12.070;2024-02-23T12:11:38;5.70;99.90
16966;DHT22;8599;47.852;12.070;2024-02-23T12:14:05;5.70;99.90
16966;DHT22;8599;47.852;12.070;2024-02-23T12:16:34;5.80;99.90
16966;DHT22;8599;47.852;12.070;2024-02-23T12:19:02;5.80;99.90
16966;DHT22;8599;47.852;12.070;2024-02-23T12:21:29;5.60;99.90
16966;DHT22;8599;47.852;12.070;2024-02-23T12:23:56;5.60;99.90
16966;DHT22;8599;47.852;12.070;2024-02-23T12:26:23;5.60;99.90
16966;DHT22;8599;47.852;12.070;2024-02-23T12:28:49;5.60;99.90
16966;DHT22;8599;47.852;12.070;2024-02-23T12:31:23;5.60;99.90
16966;DHT22;8599;47.852;12.070;2024-02-23T12:33:52;5.60;99.90
16966;DHT22;8599;47.852;12.070;2024-02-23T12:36:19;5.60;99.90
16966;DHT22;8599;47.852;12.070;2024-02-23T12:38:46;5.60;99.90
16966;DHT22;8599;47.852;12.070;2024-02-23T12:41:12;5.60;99.90
16966;DHT22;8599;47.852;12.070;2024-02-23T12:43:39;5.60;99.90
16966;DHT22;8599;47.852;12.070;2024-02-23T12:46:06;5.60;99.90
16966;DHT22;8599;47.852;12.070;2024-02-23T12:48:34;5.60;99.90
16966;DHT22;8599;47.852;12.070;2024-02-23T12:51:03;5.60;99.90
16966;DHT22;8599;47.852;12.070;2024-02-23T12:53:32;5.60;99.90
16966;DHT22;8599;47.852;12.070;2024-02-23T12:56:00;5.70;99.90
16966;DHT22;8599;47.852;12.070;2024-02-23T12:58:27;5.50;99.90
16966;DHT22;8599;47.852;12.070;2024-02-23T13:00:55;5.50;99.90
16966;DHT22;8599;47.852;12.070;2024-02-23T13:03:23;5.60;99.90
16966;DHT22;8599;47.852;12.070;2024-02-23T13:05:49;5.50;99.90
16966;DHT22;8599;47.852;12.070;2024-02-23T13:08:18;5.40;99.90
16966;DHT22;8599;47.852;12.070;2024-02-23T13:10:45;5.50;99.90
16966;DHT22;8599;47.852;12.070;2024-02-23T13:13:12;5.60;99.90
16966;DHT22;8599;47.852;12.070;2024-02-23T13:15:40;5.50;99.90
16966;DHT22;8599;47.852;12.070;2024-02-23T13:18:07;5.50;99.90
16966;DHT22;8599;47.852;12.070;2024-02-23T13:20:34;5.50;99.90
16966;DHT22;8599;47.852;12.070;2024-02-23T13:23:01;5.60;99.90
16966;DHT22;8599;47.852;12.070;2024-02-23T13:25:29;5.50;99.90
16966;DHT22;8599;47.852;12.070;2024-02-23T13:27:56;5.50;99.90
16966;DHT22;8599;47.852;12.070;2024-02-23T13:30:23;5.50;99.90
16966;DHT22;8599;47.852;12.070;2024-02-23T13:32:50;5.50;99.90
16966;DHT22;8599;47.852;12.070;2024-02-23T13:35:16;5.50;99.90
16966;DHT22;8599;47.852;12.070;2024-02-23T13:37:43;5.40;99.90
16966;DHT22;8599;47.852;12.070;2024-02-23T13:40:10;5.30;99.90
16966;DHT22;8599;47.852;12.070;2024-02-23T13:42:39;5.40;99.90
16966;DHT22;8599;47.852;12.070;2024-02-23T13:45:07;5.30;99.90
16966;DHT22;8599;47.852;12.070;2024-02-23T13:47:34;5.20;99.90
16966;DHT22;8599;47.852;12.070;2024-02-23T13:50:01;5.20;99.90
16966;DHT22;8599;47.852;12.070;2024-02-23T13:52:28;5.10;99.90
16966;DHT22;8599;47.852;12.070;2024-02-23T13:54:55;5.00;99.90
16966;DHT22;8599;47.852;12.070;2024-02-23T13:57:22;5.00;99.90
16966;DHT22;8599;47.852;12.070;2024-02-23T13:59:51;5.00;99.90
16966;DHT22;8599;47.852;12.070;2024-02-23T14:02:24;5.00;99.90
16966;DHT22;8599;47.852;12.070;2024-02-23T14:04:52;5.00;99.90
16966;DHT22;8599;47.852;12.070;2024-02-23T14:07:19;4.90;99.90
16966;DHT22;8599;47.852;12.070;2024-02-23T14:09:45;5.00;99.90
16966;DHT22;8599;47.852;12.070;2024-02-23T14:12:12;5.10;99.90
16966;DHT22;8599;47.852;12.070;2024-02-23T14:14:40;5.10;99.90
16966;DHT22;8599;47.852;12.070;2024-02-23T14:17:08;5.00;99.90
16966;DHT22;8599;47.852;12.070;2024-02-23T14:19:35;5.00;99.90
16966;DHT22;8599;47.852;12.070;2024-02-23T14:22:02;5.00;99.90
16966;DHT22;8599;47.852;12.070;2024-02-23T14:24:28;5.10;99.90
16966;DHT22;8599;47.852;12.070;2024-02-23T14:26:55;5.10;99.90
16966;DHT22;8599;47.852;12.070;2024-02-23T14:29:22;4.90;99.90
16966;DHT22;8599;47.852;12.070;2024-02-23T14:31:49;4.90;99.90
16966;DHT22;8599;47.852;12.070;2024-02-23T14:34:17;4.90;99.90
16966;DHT22;8599;47.852;12.070;2024-02-23T14:36:45;4.80;99.90
16966;DHT22;8599;47.852;12.070;2024-02-23T14:39:12;4.80;99.90
16966;DHT22;8599;47.852;12.070;2024-02-23T14:41:39;4.80;99.90
16966;DHT22;8599;47.852;12.070;2024-02-23T14:44:06;5.00;99.90
16966;DHT22;8599;47.852;12.070;2024-02-23T14:46:32;5.00;99.90
16966;DHT22;8599;47.852;12.070;2024-02-23T14:48:59;5.00;99.90
16966;DHT22;8599;47.852;12.070;2024-02-23T14:51:28;4.90;99.90
16966;DHT22;8599;47.852;12.070;2024-02-23T14:53:54;5.10;99.90
16966;DHT22;8599;47.852;12.070;2024-02-23T14:56:21;5.00;99.90
16966;DHT22;8599;47.852;12.070;2024-02-23T14:58:48;5.00;99.90
16966;DHT22;8599;47.852;12.070;2024-02-23T15:01:15;4.80;99.90
16966;DHT22;8599;47.852;12.070;2024-02-23T15:03:42;4.80;99.90
16966;DHT22;8599;47.852;12.070;2024-02-23T15:06:09;4.70;99.90
16966;DHT22;8599;47.852;12.070;2024-02-23T15:08:37;4.70;99.90
16966;DHT22;8599;47.852;12.070;2024-02-23T15:11:04;4.80;99.90
16966;DHT22;8599;47.852;12.070;2024-02-23T15:13:31;4.80;99.90
16966;DHT22;8599;47.852;12.070;2024-02-23T15:15:58;4.80;99.90
16966;DHT22;8599;47.852;12.070;2024-02-23T15:18:26;4.70;99.90
16966;DHT22;8599;47.852;12.070;2024-02-23T15:20:53;4.70;99.90
16966;DHT22;8599;47.852;12.070;2024-02-23T15:23:19;4.70;99.90
16966;DHT22;8599;47.852;12.070;2024-02-23T15:25:50;4.60;99.90
16966;DHT22;8599;47.852;12.070;2024-02-23T15:28:18;4.50;99.90
16966;DHT22;8599;47.852;12.070;2024-02-23T15:30:48;4.60;99.90
16966;DHT22;8599;47.852;12.070;2024-02-23T15:33:15;4.50;99.90
16966;DHT22;8599;47.852;12.070;2024-02-23T15:35:42;4.60;99.90
16966;DHT22;8599;47.852;12.070;2024-02-23T15:38:09;4.60;99.90
16966;DHT22;8599;47.852;12.070;2024-02-23T15:40:35;4.60;99.90
16966;DHT22;8599;47.852;12.070;2024-02-23T15:43:04;4.50;99.90
16966;DHT22;8599;47.852;12.070;2024-02-23T15:45:31;4.50;99.90